Time;durP1;ratioP1;P1;durP2;ratioP2;P2;SDS_P1;SDS_P2;PMS_P1;PMS_P2;Temp;Humidity;BMP_temperature;BMP_pressure;BME280_temperature;BME280_humidity;BME280_pressure;Samples;Min_cycle;Max_cycle;Signal;HPM_P1;HPM_P2
2022/03/01 00:01:42;;;;;;;19.27;13.53;;;;;;;;;;5047185;28;20203;-68
2022/03/01 00:04:07;;;;;;;20.00;12.77;;;;;;;;;;5064438;28;20197;-68
2022/03/01 00:06:33;;;;;;;21.70;14.07;;;;;;;;;;5069727;28;20551;-68
2022/03/01 00:08:58;;;;;;;21.10;14.40;;;;;;;;;;5069831;28;20181;-68
2022/03/01 00:11:23;;;;;;;21.80;13.13;;;;;;;;;;5067346;28;20173;-68
2022/03/01 00:13:49;;;;;;;22.20;13.43;;;;;;;;;;5069068;28;20666;-68
2022/03/01 00:16:14;;;;;;;24.00;13.93;;;;;;;;;;5070557;28;20185;-68
2022/03/01 00:18:40;;;;;;;19.13;13.00;;;;;;;;;;5068133;28;20192;-68
2022/03/01 00:21:05;;;;;;;18.70;12.17;;;;;;;;;;5059920;28;20169;-68
2022/03/01 00:23:32;;;;;;;18.50;12.60;;;;;;;;;;5069510;28;20197;-68
2022/03/01 00:25:57;;;;;;;18.37;12.97;;;;;;;;;;5071513;28;20542;-68
2022/03/01 00:28:22;;;;;;;20.40;13.23;;;;;;;;;;5071456;28;20188;-68
2022/03/01 00:30:47;;;;;;;21.80;13.50;;;;;;;;;;5072319;28;20607;-69
2022/03/01 00:33:13;;;;;;;18.93;13.47;;;;;;;;;;5066507;28;20208;-68
2022/03/01 00:35:38;;;;;;;20.60;13.43;;;;;;;;;;5070960;28;20189;-68
2022/03/01 00:38:03;;;;;;;18.97;13.20;;;;;;;;;;5050960;28;20189;-68
2022/03/01 00:40:28;;;;;;;19.17;12.83;;;;;;;;;;5070266;28;20212;-68
2022/03/01 00:42:53;;;;;;;17.97;11.67;;;;;;;;;;5070333;28;20215;-68
2022/03/01 00:45:19;;;;;;;17.80;12.80;;;;;;;;;;5070309;28;20177;-68
2022/03/01 00:47:44;;;;;;;20.90;13.27;;;;;;;;;;5067690;28;20268;-68
2022/03/01 00:50:09;;;;;;;18.87;12.87;;;;;;;;;;5064420;28;20521;-68
2022/03/01 00:52:34;;;;;;;20.40;13.40;;;;;;;;;;5062050;28;20255;-68
2022/03/01 00:55:00;;;;;;;20.27;12.33;;;;;;;;;;5045255;28;20195;-68
2022/03/01 00:57:25;;;;;;;20.33;12.63;;;;;;;;;;5047775;28;20189;-68
2022/03/01 00:59:50;;;;;;;16.27;11.70;;;;;;;;;;5062673;28;20200;-68
2022/03/01 01:02:15;;;;;;;17.00;12.67;;;;;;;;;;5069386;28;20180;-68
2022/03/01 01:04:40;;;;;;;16.93;11.43;;;;;;;;;;5068764;28;20193;-68
2022/03/01 01:07:06;;;;;;;22.43;12.60;;;;;;;;;;5067758;28;20185;-68
2022/03/01 01:09:31;;;;;;;20.43;12.93;;;;;;;;;;5066265;28;20212;-68
2022/03/01 01:11:57;;;;;;;19.77;12.00;;;;;;;;;;5069580;28;20244;-68
2022/03/01 01:14:22;;;;;;;16.10;12.37;;;;;;;;;;5068751;28;20746;-68
2022/03/01 01:16:47;;;;;;;21.37;13.53;;;;;;;;;;5068824;28;20289;-68
2022/03/01 01:19:12;;;;;;;17.67;12.90;;;;;;;;;;5047380;28;20204;-68
2022/03/01 01:24:21;;;;;;;18.30;11.73;;;;;;;;;;5069462;28;20709;-68
2022/03/01 01:26:46;;;;;;;18.50;12.07;;;;;;;;;;5070819;28;20204;-68
2022/03/01 01:29:11;;;;;;;25.63;12.57;;;;;;;;;;5070755;28;20169;-68
2022/03/01 01:31:37;;;;;;;21.00;12.90;;;;;;;;;;5066184;28;20588;-68
2022/03/01 01:34:02;;;;;;;17.63;12.03;;;;;;;;;;5061013;28;20714;-68
2022/03/01 01:36:29;;;;;;;26.07;13.37;;;;;;;;;;5059650;28;20209;-68
2022/03/01 01:38:54;;;;;;;20.43;13.20;;;;;;;;;;5060496;28;20217;-68
2022/03/01 01:41:20;;;;;;;21.43;13.60;;;;;;;;;;5068700;28;20689;-68
2022/03/01 01:43:45;;;;;;;22.27;12.97;;;;;;;;;;5068456;28;20197;-68
2022/03/01 01:46:10;;;;;;;19.67;12.80;;;;;;;;;;5070085;28;20591;-68
2022/03/01 01:48:35;;;;;;;20.03;12.70;;;;;;;;;;5068602;28;20229;-67
2022/03/01 01:51:00;;;;;;;16.97;12.30;;;;;;;;;;5069132;28;20275;-68
2022/03/01 01:53:26;;;;;;;18.17;12.47;;;;;;;;;;5069230;28;20643;-68
2022/03/01 01:55:51;;;;;;;15.43;12.27;;;;;;;;;;5065917;28;20712;-68
2022/03/01 01:58:17;;;;;;;18.53;13.10;;;;;;;;;;5070290;28;20181;-68
2022/03/01 02:00:43;;;;;;;18.87;13.00;;;;;;;;;;5071209;28;20629;-68
2022/03/01 02:03:08;;;;;;;16.80;12.63;;;;;;;;;;5073382;28;20216;-68
2022/03/01 02:05:34;;;;;;;21.87;13.00;;;;;;;;;;5072395;28;20666;-68
2022/03/01 02:07:59;;;;;;;16.70;11.67;;;;;;;;;;5073789;28;20248;-69
2022/03/01 02:10:24;;;;;;;22.33;12.70;;;;;;;;;;5068733;28;20676;-68
2022/03/01 02:12:49;;;;;;;19.80;12.70;;;;;;;;;;5073282;28;20260;-70
2022/03/01 02:15:15;;;;;;;18.53;13.27;;;;;;;;;;5073796;28;20548;-68
2022/03/01 02:17:41;;;;;;;23.70;12.50;;;;;;;;;;5073708;28;20180;-67
2022/03/01 02:20:08;;;;;;;17.23;11.60;;;;;;;;;;5073712;28;20691;-68
2022/03/01 02:22:33;;;;;;;16.37;11.83;;;;;;;;;;5065883;28;20212;-69
2022/03/01 02:24:59;;;;;;;18.27;12.53;;;;;;;;;;5070900;28;20290;-69
2022/03/01 02:27:24;;;;;;;18.07;12.33;;;;;;;;;;5071479;28;20185;-69
2022/03/01 02:29:49;;;;;;;17.03;11.67;;;;;;;;;;5072836;28;20294;-69
2022/03/01 02:32:14;;;;;;;16.37;11.63;;;;;;;;;;5072481;28;20187;-67
2022/03/01 02:34:39;;;;;;;17.07;10.80;;;;;;;;;;5070878;28;20657;-69
2022/03/01 02:37:05;;;;;;;16.27;11.10;;;;;;;;;;5071578;28;20180;-69
2022/03/01 02:39:30;;;;;;;16.90;11.83;;;;;;;;;;5071167;28;20682;-69
2022/03/01 02:41:55;;;;;;;18.33;11.07;;;;;;;;;;5073281;28;20165;-67
2022/03/01 02:44:20;;;;;;;15.87;11.53;;;;;;;;;;5070431;28;20771;-67
2022/03/01 02:46:45;;;;;;;17.80;12.07;;;;;;;;;;5072849;28;20196;-68
2022/03/01 02:49:11;;;;;;;18.97;11.67;;;;;;;;;;5073801;28;20173;-67
2022/03/01 02:51:36;;;;;;;17.70;11.50;;;;;;;;;;5068384;28;20264;-69
2022/03/01 02:54:02;;;;;;;18.23;11.23;;;;;;;;;;5069992;28;20835;-69
2022/03/01 02:56:27;;;;;;;15.77;11.27;;;;;;;;;;5068665;28;20248;-69
2022/03/01 02:58:55;;;;;;;21.33;13.23;;;;;;;;;;5069440;28;20184;-68
2022/03/01 03:01:21;;;;;;;16.80;10.43;;;;;;;;;;5072539;28;20633;-68
2022/03/01 03:03:47;;;;;;;14.53;11.27;;;;;;;;;;5070616;28;20200;-68
2022/03/01 03:06:12;;;;;;;15.23;11.37;;;;;;;;;;5072727;28;20608;-68
2022/03/01 03:08:37;;;;;;;17.37;11.40;;;;;;;;;;5072953;28;20634;-68
2022/03/01 03:11:02;;;;;;;17.60;12.10;;;;;;;;;;5064220;28;20231;-68
2022/03/01 03:13:27;;;;;;;19.03;11.73;;;;;;;;;;5071351;28;20649;-68
2022/03/01 03:15:53;;;;;;;14.20;10.57;;;;;;;;;;5068893;28;20185;-69
2022/03/01 03:18:18;;;;;;;14.83;10.87;;;;;;;;;;5073604;28;20220;-68
2022/03/01 03:20:43;;;;;;;16.23;11.33;;;;;;;;;;5072248;28;20689;-69
2022/03/01 03:23:09;;;;;;;20.53;11.77;;;;;;;;;;5072409;28;20239;-68
2022/03/01 03:25:35;;;;;;;17.27;11.73;;;;;;;;;;5061379;28;20217;-69
2022/03/01 03:28:00;;;;;;;16.93;11.87;;;;;;;;;;5069773;28;20654;-69
2022/03/01 03:30:25;;;;;;;20.00;10.87;;;;;;;;;;5076483;28;20177;-68
2022/03/01 03:32:50;;;;;;;15.13;11.10;;;;;;;;;;5071445;28;20271;-68
2022/03/01 03:35:15;;;;;;;16.00;11.87;;;;;;;;;;5071782;28;20184;-69
2022/03/01 03:37:41;;;;;;;17.97;12.97;;;;;;;;;;5072303;28;20181;-68
2022/03/01 03:40:06;;;;;;;20.13;11.80;;;;;;;;;;5072015;28;20200;-68
2022/03/01 03:42:32;;;;;;;18.50;11.83;;;;;;;;;;5063252;28;20173;-68
2022/03/01 03:44:57;;;;;;;20.93;13.33;;;;;;;;;;5068496;28;20297;-68
2022/03/01 03:47:22;;;;;;;18.47;12.13;;;;;;;;;;5070571;28;20212;-69
2022/03/01 03:49:48;;;;;;;15.60;11.43;;;;;;;;;;5070083;28;20276;-68
2022/03/01 03:52:13;;;;;;;15.27;11.07;;;;;;;;;;5071701;28;20181;-69
2022/03/01 03:54:38;;;;;;;16.03;11.03;;;;;;;;;;5070231;28;20192;-68
2022/03/01 03:57:08;;;;;;;17.23;11.27;;;;;;;;;;5068474;28;20176;-69
2022/03/01 03:59:34;;;;;;;15.63;10.90;;;;;;;;;;5064950;28;20275;-68
2022/03/01 04:01:59;;;;;;;16.90;11.40;;;;;;;;;;5050490;28;20358;-68
2022/03/01 04:04:25;;;;;;;16.50;11.20;;;;;;;;;;5069597;28;20712;-68
2022/03/01 04:06:50;;;;;;;16.87;12.50;;;;;;;;;;5070026;28;20244;-68
2022/03/01 04:09:15;;;;;;;16.07;10.67;;;;;;;;;;5067201;28;20189;-68
2022/03/01 04:11:40;;;;;;;16.73;11.13;;;;;;;;;;5069519;28;20188;-69
2022/03/01 04:14:05;;;;;;;16.50;11.33;;;;;;;;;;5068639;28;20271;-68
2022/03/01 04:16:30;;;;;;;16.77;11.23;;;;;;;;;;5051924;28;20188;-68
2022/03/01 04:18:56;;;;;;;14.67;10.67;;;;;;;;;;5070104;28;20180;-69
2022/03/01 04:21:21;;;;;;;15.17;10.90;;;;;;;;;;5069307;28;20612;-68
2022/03/01 04:23:47;;;;;;;15.50;11.07;;;;;;;;;;5069516;28;20184;-68
2022/03/01 04:26:12;;;;;;;16.70;11.27;;;;;;;;;;5069778;28;20562;-68
2022/03/01 04:28:37;;;;;;;15.87;11.13;;;;;;;;;;5069791;28;20267;-69
2022/03/01 04:31:02;;;;;;;17.03;11.47;;;;;;;;;;5074133;28;20187;-68
2022/03/01 04:33:28;;;;;;;14.90;10.27;;;;;;;;;;5069419;28;20716;-68
2022/03/01 04:35:54;;;;;;;17.57;10.77;;;;;;;;;;5070349;28;20263;-68
2022/03/01 04:38:20;;;;;;;18.03;11.77;;;;;;;;;;5069232;28;20646;-68
2022/03/01 04:40:45;;;;;;;15.03;10.60;;;;;;;;;;5069025;28;20201;-68
2022/03/01 04:43:11;;;;;;;16.03;10.67;;;;;;;;;;5068920;28;20184;-69
2022/03/01 04:45:36;;;;;;;15.27;10.17;;;;;;;;;;5073673;28;20250;-68
2022/03/01 04:48:01;;;;;;;14.20;9.87;;;;;;;;;;5070226;28;20191;-69
2022/03/01 04:50:27;;;;;;;20.30;11.63;;;;;;;;;;5069747;28;20180;-69
2022/03/01 04:52:52;;;;;;;17.20;11.37;;;;;;;;;;5069310;28;20219;-68
2022/03/01 04:55:17;;;;;;;15.27;9.90;;;;;;;;;;5068144;28;20670;-69
2022/03/01 04:57:43;;;;;;;19.03;10.93;;;;;;;;;;5065800;28;20185;-69
2022/03/01 05:00:12;;;;;;;14.93;10.67;;;;;;;;;;5065125;28;20200;-69
2022/03/01 05:02:41;;;;;;;17.50;11.33;;;;;;;;;;5067173;28;20854;-69
2022/03/01 05:05:10;;;;;;;15.63;10.37;;;;;;;;;;5067914;28;20169;-68
2022/03/01 05:07:35;;;;;;;18.60;11.13;;;;;;;;;;5069004;28;20177;-68
2022/03/01 05:10:00;;;;;;;18.97;10.57;;;;;;;;;;5069417;28;20229;-68
2022/03/01 05:12:26;;;;;;;13.37;9.80;;;;;;;;;;5069354;28;20192;-68
2022/03/01 05:14:51;;;;;;;13.97;10.03;;;;;;;;;;5065888;28;20197;-68
2022/03/01 05:17:16;;;;;;;14.67;10.63;;;;;;;;;;5068972;28;20192;-68
2022/03/01 05:19:41;;;;;;;15.40;10.50;;;;;;;;;;5067762;28;20205;-69
2022/03/01 05:22:06;;;;;;;16.00;10.17;;;;;;;;;;5069779;28;20183;-68
2022/03/01 05:24:32;;;;;;;14.87;10.13;;;;;;;;;;5070199;28;20560;-68
2022/03/01 05:26:57;;;;;;;15.20;10.23;;;;;;;;;;5069860;28;20260;-68
2022/03/01 05:29:22;;;;;;;15.00;10.67;;;;;;;;;;5069866;28;20618;-68
2022/03/01 05:31:48;;;;;;;17.33;11.20;;;;;;;;;;5069955;28;20176;-68
2022/03/01 05:34:13;;;;;;;13.10;9.57;;;;;;;;;;5068991;28;20212;-69
2022/03/01 05:36:38;;;;;;;14.63;10.80;;;;;;;;;;5074062;28;20180;-68
2022/03/01 05:39:03;;;;;;;16.93;10.97;;;;;;;;;;5072961;28;20250;-68
2022/03/01 05:41:28;;;;;;;15.13;10.53;;;;;;;;;;5073818;28;20180;-68
2022/03/01 05:43:53;;;;;;;13.90;9.50;;;;;;;;;;5073164;28;20602;-68
2022/03/01 05:46:19;;;;;;;16.90;10.50;;;;;;;;;;5073220;28;20224;-68
2022/03/01 05:48:44;;;;;;;19.87;10.87;;;;;;;;;;5073465;28;20181;-69
2022/03/01 05:51:09;;;;;;;13.97;9.37;;;;;;;;;;5071528;28;20272;-68
2022/03/01 05:53:34;;;;;;;14.87;9.73;;;;;;;;;;5073331;28;20755;-68
2022/03/01 05:56:00;;;;;;;12.70;9.03;;;;;;;;;;5072637;28;20663;-69
2022/03/01 05:58:25;;;;;;;14.73;9.77;;;;;;;;;;5069799;28;20188;-68
2022/03/01 06:00:50;;;;;;;12.70;9.37;;;;;;;;;;5061523;28;20239;-69
2022/03/01 06:03:15;;;;;;;13.07;10.27;;;;;;;;;;5069125;28;20231;-69
2022/03/01 06:05:41;;;;;;;12.13;9.63;;;;;;;;;;5069686;28;20177;-69
2022/03/01 06:08:06;;;;;;;16.23;10.27;;;;;;;;;;5073076;28;20181;-68
2022/03/01 06:10:31;;;;;;;15.03;10.13;;;;;;;;;;5068846;28;20173;-69
2022/03/01 06:12:56;;;;;;;13.83;9.93;;;;;;;;;;5070470;28;20245;-68
2022/03/01 06:15:21;;;;;;;16.77;10.43;;;;;;;;;;5069173;28;20211;-68
2022/03/01 06:17:47;;;;;;;14.83;10.17;;;;;;;;;;5072036;28;20184;-68
2022/03/01 06:20:13;;;;;;;14.20;9.57;;;;;;;;;;5070717;28;20203;-69
2022/03/01 06:22:39;;;;;;;13.20;9.27;;;;;;;;;;5072475;28;20173;-68
2022/03/01 06:25:04;;;;;;;14.37;10.33;;;;;;;;;;5067819;28;20189;-69
2022/03/01 06:27:30;;;;;;;14.70;9.67;;;;;;;;;;5069160;28;20184;-68
2022/03/01 06:29:55;;;;;;;14.53;9.77;;;;;;;;;;5067500;28;20267;-68
2022/03/01 06:32:21;;;;;;;13.93;9.00;;;;;;;;;;5072776;28;20188;-68
2022/03/01 06:34:46;;;;;;;14.60;10.00;;;;;;;;;;5057471;28;20216;-69
2022/03/01 06:37:13;;;;;;;12.43;9.30;;;;;;;;;;5071541;28;20554;-69
2022/03/01 06:39:42;;;;;;;15.13;10.63;;;;;;;;;;5070662;28;20208;-69
2022/03/01 06:42:08;;;;;;;14.80;10.37;;;;;;;;;;5068345;28;20185;-68
2022/03/01 06:44:34;;;;;;;13.70;10.47;;;;;;;;;;5072284;28;20204;-69
2022/03/01 06:46:59;;;;;;;15.03;9.63;;;;;;;;;;5071326;28;20196;-68
2022/03/01 06:49:24;;;;;;;14.03;9.63;;;;;;;;;;5069678;28;20188;-68
2022/03/01 06:51:50;;;;;;;14.07;10.00;;;;;;;;;;5072203;28;20232;-68
2022/03/01 06:54:15;;;;;;;15.57;11.47;;;;;;;;;;5070511;28;20219;-69
2022/03/01 06:56:40;;;;;;;16.37;10.53;;;;;;;;;;5071993;28;20212;-68
2022/03/01 06:59:05;;;;;;;13.30;9.43;;;;;;;;;;5070860;28;20634;-68
2022/03/01 07:01:30;;;;;;;16.83;9.57;;;;;;;;;;5069952;28;20212;-68
2022/03/01 07:03:55;;;;;;;11.67;9.77;;;;;;;;;;5072047;28;20189;-69
2022/03/01 07:06:21;;;;;;;14.23;9.97;;;;;;;;;;5071165;28;20662;-68
2022/03/01 07:08:46;;;;;;;13.57;9.80;;;;;;;;;;5070342;28;20177;-68
2022/03/01 07:11:11;;;;;;;13.90;9.60;;;;;;;;;;5068555;28;20224;-68
2022/03/01 07:13:37;;;;;;;15.70;9.90;;;;;;;;;;5070083;28;20201;-68
2022/03/01 07:16:05;;;;;;;11.60;9.10;;;;;;;;;;5072567;28;20234;-68
2022/03/01 07:18:30;;;;;;;15.77;10.20;;;;;;;;;;5069619;28;20219;-68
2022/03/01 07:20:55;;;;;;;14.53;9.40;;;;;;;;;;5072782;28;20232;-68
2022/03/01 07:23:20;;;;;;;14.97;9.67;;;;;;;;;;5070816;28;20735;-68
2022/03/01 07:25:45;;;;;;;15.57;11.23;;;;;;;;;;5074592;28;20173;-68
2022/03/01 07:28:11;;;;;;;12.70;9.80;;;;;;;;;;5071643;28;20169;-68
2022/03/01 07:30:36;;;;;;;12.77;9.23;;;;;;;;;;5072824;28;20180;-69
2022/03/01 07:33:01;;;;;;;18.10;11.03;;;;;;;;;;5072352;28;20587;-68
2022/03/01 07:35:27;;;;;;;12.80;10.07;;;;;;;;;;5071415;28;20236;-68
2022/03/01 07:37:52;;;;;;;14.63;10.23;;;;;;;;;;5054246;28;20174;-68
2022/03/01 07:40:18;;;;;;;18.40;10.30;;;;;;;;;;5066015;28;20478;-69
2022/03/01 07:42:44;;;;;;;13.83;9.37;;;;;;;;;;5071561;28;20184;-69
2022/03/01 07:45:09;;;;;;;15.37;10.03;;;;;;;;;;5072382;28;20166;-68
2022/03/01 07:47:35;;;;;;;14.30;9.97;;;;;;;;;;5072328;28;20181;-68
2022/03/01 07:50:00;;;;;;;15.57;11.07;;;;;;;;;;5072086;28;20169;-69
2022/03/01 07:52:25;;;;;;;15.13;10.03;;;;;;;;;;5070882;28;20540;-68
2022/03/01 07:54:51;;;;;;;17.70;10.60;;;;;;;;;;5065756;28;20220;-68
2022/03/01 07:57:16;;;;;;;16.77;10.27;;;;;;;;;;5067169;28;20639;-68
2022/03/01 07:59:42;;;;;;;15.30;11.17;;;;;;;;;;5070882;28;20189;-69
2022/03/01 08:02:07;;;;;;;15.13;11.13;;;;;;;;;;5071830;28;20280;-69
2022/03/01 08:04:32;;;;;;;13.80;10.13;;;;;;;;;;5071198;28;20216;-68
2022/03/01 08:06:58;;;;;;;15.37;10.73;;;;;;;;;;5069358;28;20169;-69
2022/03/01 08:09:23;;;;;;;14.70;10.33;;;;;;;;;;5071963;28;20180;-69
2022/03/01 08:11:48;;;;;;;14.10;9.97;;;;;;;;;;5070833;28;20185;-68
2022/03/01 08:14:13;;;;;;;16.40;10.10;;;;;;;;;;5062909;28;20266;-69
2022/03/01 08:16:38;;;;;;;13.33;10.27;;;;;;;;;;5070870;28;20211;-69
2022/03/01 08:19:03;;;;;;;14.50;10.50;;;;;;;;;;5071345;28;20173;-69
2022/03/01 08:21:29;;;;;;;14.87;11.03;;;;;;;;;;5070764;28;20234;-68
2022/03/01 08:23:54;;;;;;;19.33;12.13;;;;;;;;;;5070896;28;20708;-68
2022/03/01 08:26:19;;;;;;;15.10;10.10;;;;;;;;;;5071335;28;20200;-68
2022/03/01 08:28:46;;;;;;;15.53;10.80;;;;;;;;;;5071264;28;20177;-68
2022/03/01 08:31:11;;;;;;;17.53;10.93;;;;;;;;;;5066628;28;20188;-68
2022/03/01 08:33:37;;;;;;;14.87;10.63;;;;;;;;;;5068643;28;20204;-69
2022/03/01 08:36:02;;;;;;;18.03;10.77;;;;;;;;;;5071423;28;20203;-69
2022/03/01 08:38:27;;;;;;;17.13;10.70;;;;;;;;;;5068399;28;20181;-69
2022/03/01 08:40:53;;;;;;;15.20;11.17;;;;;;;;;;5069294;28;20207;-68
2022/03/01 08:43:20;;;;;;;14.63;10.43;;;;;;;;;;5069091;28;20201;-68
2022/03/01 08:45:45;;;;;;;17.30;12.13;;;;;;;;;;5068420;28;20181;-68
2022/03/01 08:48:10;;;;;;;17.20;9.63;;;;;;;;;;5043498;28;20184;-68
2022/03/01 08:50:36;;;;;;;12.03;9.30;;;;;;;;;;5070564;28;20191;-68
2022/03/01 08:53:02;;;;;;;16.73;11.47;;;;;;;;;;5062112;28;20286;-68
2022/03/01 08:55:27;;;;;;;14.97;10.43;;;;;;;;;;5058562;28;20188;-69
2022/03/01 08:57:52;;;;;;;14.17;10.40;;;;;;;;;;5065777;28;20185;-68
2022/03/01 09:00:18;;;;;;;13.57;10.23;;;;;;;;;;5065121;28;20238;-68
2022/03/01 09:02:43;;;;;;;15.23;10.57;;;;;;;;;;5069323;28;20239;-68
2022/03/01 09:05:08;;;;;;;15.17;11.07;;;;;;;;;;5065784;28;20172;-68
2022/03/01 09:07:34;;;;;;;17.83;10.40;;;;;;;;;;5052335;28;20256;-68
2022/03/01 09:09:59;;;;;;;12.27;9.70;;;;;;;;;;5065743;28;20173;-68
2022/03/01 09:12:24;;;;;;;17.80;11.73;;;;;;;;;;5064500;28;20768;-68
2022/03/01 09:14:50;;;;;;;17.20;10.43;;;;;;;;;;5065950;28;20241;-69
2022/03/01 09:17:15;;;;;;;17.67;11.50;;;;;;;;;;5068027;28;20184;-68
2022/03/01 09:19:40;;;;;;;14.33;11.13;;;;;;;;;;5068398;28;20200;-69
2022/03/01 09:22:06;;;;;;;16.97;11.17;;;;;;;;;;5068956;28;20196;-68
2022/03/01 09:24:31;;;;;;;15.33;10.67;;;;;;;;;;5047886;28;20193;-68
2022/03/01 09:27:00;;;;;;;16.03;10.90;;;;;;;;;;5065092;28;20455;-68
2022/03/01 09:29:26;;;;;;;13.10;10.73;;;;;;;;;;5066423;28;20553;-68
2022/03/01 09:31:51;;;;;;;15.40;10.63;;;;;;;;;;5058832;28;20185;-69
2022/03/01 09:34:16;;;;;;;19.33;11.50;;;;;;;;;;5065370;28;20257;-68
2022/03/01 09:36:41;;;;;;;14.77;10.93;;;;;;;;;;5065289;28;20173;-68
2022/03/01 09:39:07;;;;;;;16.03;10.87;;;;;;;;;;5068746;28;20187;-68
2022/03/01 09:41:32;;;;;;;15.27;11.80;;;;;;;;;;5069134;28;20180;-68
2022/03/01 09:43:58;;;;;;;14.87;11.27;;;;;;;;;;5063845;28;20205;-68
2022/03/01 09:46:24;;;;;;;13.07;10.10;;;;;;;;;;5066132;28;20264;-69
2022/03/01 09:48:49;;;;;;;15.50;11.63;;;;;;;;;;5064973;28;20327;-69
2022/03/01 09:51:15;;;;;;;15.50;11.43;;;;;;;;;;5067316;28;20201;-68
2022/03/01 09:53:41;;;;;;;14.80;10.93;;;;;;;;;;5058971;28;20192;-67
2022/03/01 09:56:07;;;;;;;18.13;11.33;;;;;;;;;;5065595;28;20180;-68
2022/03/01 09:58:33;;;;;;;15.20;11.43;;;;;;;;;;5065991;28;20180;-68
2022/03/01 10:00:58;;;;;;;15.93;11.77;;;;;;;;;;5069909;28;20197;-68
2022/03/01 10:03:23;;;;;;;13.17;10.93;;;;;;;;;;5067429;28;20205;-68
2022/03/01 10:05:49;;;;;;;15.87;11.03;;;;;;;;;;5065718;28;20188;-68
2022/03/01 10:08:20;;;;;;;17.67;11.43;;;;;;;;;;5045918;28;20222;-68
2022/03/01 10:10:50;;;;;;;17.07;10.57;;;;;;;;;;5061964;28;20214;-68
2022/03/01 10:13:20;;;;;;;19.47;12.53;;;;;;;;;;5062447;28;20203;-68
2022/03/01 10:15:47;;;;;;;18.27;12.37;;;;;;;;;;5050230;28;20192;-69
2022/03/01 10:18:14;;;;;;;14.77;11.13;;;;;;;;;;5049570;28;20185;-68
2022/03/01 10:20:41;;;;;;;18.60;12.73;;;;;;;;;;5066905;28;20208;-69
2022/03/01 10:23:07;;;;;;;16.30;12.43;;;;;;;;;;5067017;28;20613;-69
2022/03/01 10:25:33;;;;;;;16.70;12.37;;;;;;;;;;5069662;28;20176;-69
2022/03/01 10:27:58;;;;;;;17.50;11.20;;;;;;;;;;5070333;28;20886;-68
2022/03/01 10:30:23;;;;;;;15.33;10.87;;;;;;;;;;5067465;28;20531;-68
2022/03/01 10:32:48;;;;;;;18.03;12.73;;;;;;;;;;5068444;28;20179;-69
2022/03/01 10:35:14;;;;;;;18.50;11.93;;;;;;;;;;5068367;28;20177;-69
2022/03/01 10:37:39;;;;;;;16.13;12.67;;;;;;;;;;5063996;28;20715;-68
2022/03/01 10:40:21;;;;;;;17.80;12.87;;;;;;;;;;5068552;28;20205;-69
2022/03/01 10:42:59;;;;;;;15.53;11.67;;;;;;;;;;5067802;28;20204;-68
2022/03/01 10:45:35;;;;;;;16.73;12.20;;;;;;;;;;5072900;28;20360;-69
2022/03/01 10:48:00;;;;;;;17.77;13.00;;;;;;;;;;5052120;28;20175;-69
2022/03/01 10:50:26;;;;;;;19.10;13.37;;;;;;;;;;5069555;28;20548;-69
2022/03/01 10:52:51;;;;;;;19.17;13.40;;;;;;;;;;5069733;28;20220;-68
2022/03/01 10:55:38;;;;;;;17.60;14.00;;;;;;;;;;5066902;28;20576;-69
2022/03/01 10:58:05;;;;;;;18.37;12.80;;;;;;;;;;5070641;28;20189;-69
2022/03/01 11:00:31;;;;;;;20.80;12.73;;;;;;;;;;5070297;28;20547;-68
2022/03/01 11:02:57;;;;;;;17.83;13.73;;;;;;;;;;5072460;28;20747;-68
2022/03/01 11:05:22;;;;;;;17.07;12.20;;;;;;;;;;5068175;28;20181;-68
2022/03/01 11:07:49;;;;;;;15.30;12.10;;;;;;;;;;5053810;28;20766;-68
2022/03/01 11:10:15;;;;;;;17.97;14.27;;;;;;;;;;5071099;28;20197;-68
2022/03/01 11:12:42;;;;;;;18.70;12.47;;;;;;;;;;5071428;28;20712;-68
2022/03/01 11:15:07;;;;;;;22.93;14.47;;;;;;;;;;5050910;28;20308;-69
2022/03/01 11:17:40;;;;;;;18.53;14.20;;;;;;;;;;5070773;28;20263;-69
2022/03/01 11:20:14;;;;;;;18.40;14.57;;;;;;;;;;5069809;28;20208;-69
2022/03/01 11:22:47;;;;;;;17.47;12.47;;;;;;;;;;5065263;28;20184;-69
2022/03/01 11:25:19;;;;;;;18.23;13.13;;;;;;;;;;5068121;28;20177;-69
2022/03/01 11:27:46;;;;;;;17.93;12.60;;;;;;;;;;5071050;28;20188;-69
2022/03/01 11:30:12;;;;;;;17.00;12.73;;;;;;;;;;5067496;28;20188;-69
2022/03/01 11:32:39;;;;;;;19.53;13.47;;;;;;;;;;5065501;28;20189;-69
2022/03/01 11:35:04;;;;;;;20.90;13.93;;;;;;;;;;5065533;28;20193;-69
2022/03/01 11:37:29;;;;;;;14.73;12.47;;;;;;;;;;5067086;28;20731;-69
2022/03/01 11:39:57;;;;;;;17.33;13.13;;;;;;;;;;5069119;28;20197;-69
2022/03/01 11:42:22;;;;;;;16.33;12.90;;;;;;;;;;5064358;28;20181;-69
2022/03/01 11:44:49;;;;;;;16.53;13.80;;;;;;;;;;5069535;28;20939;-68
2022/03/01 11:47:23;;;;;;;18.63;14.40;;;;;;;;;;5071642;28;20648;-69
2022/03/01 11:49:48;;;;;;;16.27;13.10;;;;;;;;;;5070586;28;20193;-71
2022/03/01 11:52:17;;;;;;;18.60;13.17;;;;;;;;;;5071951;28;20185;-69
2022/03/01 11:54:43;;;;;;;15.33;13.03;;;;;;;;;;5068999;28;20618;-69
2022/03/01 11:57:10;;;;;;;16.67;13.07;;;;;;;;;;5071169;28;20177;-69
2022/03/01 11:59:38;;;;;;;19.20;13.60;;;;;;;;;;5067325;28;20204;-68
2022/03/01 12:02:05;;;;;;;17.60;13.23;;;;;;;;;;5069370;28;20173;-69
2022/03/01 12:04:30;;;;;;;16.17;13.83;;;;;;;;;;5069901;28;20200;-69
2022/03/01 12:06:57;;;;;;;20.53;15.07;;;;;;;;;;5069999;28;20177;-69
2022/03/01 12:09:23;;;;;;;17.53;13.43;;;;;;;;;;5070615;28;20242;-69
2022/03/01 12:11:49;;;;;;;20.00;14.07;;;;;;;;;;5053044;28;20184;-68
2022/03/01 12:14:20;;;;;;;18.03;14.30;;;;;;;;;;5070431;28;20553;-68
2022/03/01 12:16:46;;;;;;;16.57;13.37;;;;;;;;;;5069612;28;20181;-69
2022/03/01 12:19:14;;;;;;;17.00;13.63;;;;;;;;;;5069066;28;20204;-69
2022/03/01 12:21:40;;;;;;;19.13;14.43;;;;;;;;;;5068473;28;20514;-69
2022/03/01 12:24:06;;;;;;;16.75;13.98;;;;;;;;;;5070582;28;20201;-68
2022/03/01 12:26:34;;;;;;;17.55;14.60;;;;;;;;;;5067720;28;20187;-68
2022/03/01 12:29:00;;;;;;;19.37;15.13;;;;;;;;;;5070178;28;20185;-69
2022/03/01 12:31:27;;;;;;;18.38;14.20;;;;;;;;;;5068772;28;20738;-68
2022/03/01 12:33:53;;;;;;;17.65;13.73;;;;;;;;;;5067256;28;20224;-68
2022/03/01 12:36:44;;;;;;;19.60;14.73;;;;;;;;;;5061284;28;20285;-68
2022/03/01 12:39:11;;;;;;;20.90;13.65;;;;;;;;;;5061144;28;20258;-68
2022/03/01 12:41:37;;;;;;;20.25;15.05;;;;;;;;;;5068732;28;20211;-68
2022/03/01 12:44:04;;;;;;;19.70;14.63;;;;;;;;;;5068157;28;20189;-69
2022/03/01 12:46:29;;;;;;;20.17;15.13;;;;;;;;;;5069955;28;20189;-69
2022/03/01 12:48:55;;;;;;;17.48;14.18;;;;;;;;;;5068405;28;20299;-68
2022/03/01 12:51:21;;;;;;;23.48;16.17;;;;;;;;;;5069770;28;20263;-68
2022/03/01 12:53:59;;;;;;;21.65;14.18;;;;;;;;;;5067213;28;20243;-69
2022/03/01 12:56:27;;;;;;;19.20;15.07;;;;;;;;;;5067322;28;20589;-69
2022/03/01 12:58:53;;;;;;;22.58;15.32;;;;;;;;;;5069179;28;20184;-69
2022/03/01 13:01:19;;;;;;;17.92;14.18;;;;;;;;;;5069693;28;20208;-69
2022/03/01 13:03:47;;;;;;;16.02;13.85;;;;;;;;;;5066745;28;20682;-70
2022/03/01 13:06:14;;;;;;;17.65;14.40;;;;;;;;;;5064260;28;20191;-68
2022/03/01 13:08:41;;;;;;;18.05;14.30;;;;;;;;;;5067496;28;20234;-69
2022/03/01 13:11:10;;;;;;;21.98;14.38;;;;;;;;;;5067419;28;20212;-69
2022/03/01 13:13:42;;;;;;;18.83;14.15;;;;;;;;;;5066083;28;20617;-68
2022/03/01 13:16:07;;;;;;;20.33;14.88;;;;;;;;;;5068244;28;20701;-68
2022/03/01 13:18:32;;;;;;;20.38;15.63;;;;;;;;;;5066951;28;20181;-69
2022/03/01 13:20:57;;;;;;;18.95;14.68;;;;;;;;;;5066448;28;20192;-69
2022/03/01 13:23:30;;;;;;;21.10;15.10;;;;;;;;;;5069977;28;20286;-69
2022/03/01 13:25:57;;;;;;;22.08;15.55;;;;;;;;;;5068924;28;20259;-69
2022/03/01 13:28:29;;;;;;;22.80;17.33;;;;;;;;;;5067636;28;20530;-69
2022/03/01 13:30:54;;;;;;;19.10;15.88;;;;;;;;;;5069408;28;20633;-69
2022/03/01 13:33:19;;;;;;;20.60;16.38;;;;;;;;;;5066695;28;20296;-69
2022/03/01 13:35:45;;;;;;;20.13;15.38;;;;;;;;;;5051962;28;20185;-68
2022/03/01 13:38:10;;;;;;;19.88;16.00;;;;;;;;;;5049492;28;20173;-69
2022/03/01 13:40:36;;;;;;;21.80;16.13;;;;;;;;;;5067690;28;20216;-69
2022/03/01 13:43:08;;;;;;;18.20;14.50;;;;;;;;;;5068099;28;20204;-68
2022/03/01 13:45:34;;;;;;;17.52;14.10;;;;;;;;;;5068936;28;20181;-69
2022/03/01 13:48:12;;;;;;;21.10;15.63;;;;;;;;;;5052599;28;20235;-69
2022/03/01 13:50:38;;;;;;;21.92;16.35;;;;;;;;;;5068567;28;20708;-69
2022/03/01 13:53:14;;;;;;;18.98;14.55;;;;;;;;;;5062105;28;20227;-68
2022/03/01 13:55:40;;;;;;;20.07;15.27;;;;;;;;;;5065761;28;20192;-68
2022/03/01 13:58:06;;;;;;;19.55;15.48;;;;;;;;;;5070095;28;20569;-69
2022/03/01 14:00:36;;;;;;;20.10;14.95;;;;;;;;;;5065672;28;20299;-68
2022/03/01 14:03:01;;;;;;;19.83;14.80;;;;;;;;;;5066827;28;20203;-68
2022/03/01 14:05:27;;;;;;;23.87;16.70;;;;;;;;;;5070688;28;20636;-68
2022/03/01 14:07:59;;;;;;;19.27;14.20;;;;;;;;;;5072619;28;20169;-69
2022/03/01 14:10:25;;;;;;;20.07;15.60;;;;;;;;;;5074576;28;20188;-68
2022/03/01 14:12:58;;;;;;;22.13;14.50;;;;;;;;;;5072179;28;20173;-68
2022/03/01 14:15:30;;;;;;;20.03;15.17;;;;;;;;;;5068741;28;20173;-68